Time;durP1;ratioP1;P1;durP2;ratioP2;P2;SDS_P1;SDS_P2;PMS_P1;PMS_P2;Temp;Humidity;BMP_temperature;BMP_pressure;BME280_temperature;BME280_humidity;BME280_pressure;Samples;Min_cycle;Max_cycle;Signal;HPM_P1;HPM_P2
2022/06/06 00:01:17;;;;;;;1.52;1.42;;;23.90;41.80;;;27.80;27.21;100767.13;5113475;28;20043;-19
2022/06/06 00:03:44;;;;;;;1.60;1.50;;;23.90;41.80;;;27.80;27.10;100772.50;5113609;28;20043;-19
2022/06/06 00:06:15;;;;;;;1.98;1.88;;;23.90;41.80;;;27.82;27.13;100769.69;5113169;28;20970;-19
2022/06/06 00:08:41;;;;;;;;;;;23.90;41.80;;;27.91;27.01;100768.81;5114193;28;20074;-19
2022/06/06 00:11:09;;;;;;;1.48;1.38;;;23.90;41.80;;;27.86;27.39;100776.44;5113120;28;20362;-19
2022/06/06 00:13:41;;;;;;;1.80;1.70;;;23.90;41.80;;;27.82;27.42;100780.44;5113744;28;20135;-19
2022/06/06 00:16:08;;;;;;;1.70;1.60;;;23.90;41.90;;;27.82;27.41;100804.59;5113101;28;20035;-19
2022/06/06 00:18:35;;;;;;;1.40;1.30;;;23.90;41.90;;;27.80;27.24;100817.31;5113546;28;20071;-19
2022/06/06 00:21:03;;;;;;;1.60;1.50;;;23.90;41.90;;;27.77;27.44;100810.41;5116328;28;20363;-21
2022/06/06 00:23:29;;;;;;;1.50;1.40;;;23.90;41.90;;;27.78;27.23;100828.19;5117285;28;20171;-19
2022/06/06 00:25:56;;;;;;;2.00;1.65;;;23.90;41.90;;;27.78;27.45;100832.72;5116975;28;20483;-19
2022/06/06 00:28:23;;;;;;;1.40;1.30;;;23.90;41.90;;;27.76;27.57;100835.56;5116624;28;20039;-19
2022/06/06 00:30:55;;;;;;;1.50;1.40;;;23.90;41.90;;;27.73;27.47;100838.50;5116530;28;20532;-20
2022/06/06 00:36:05;;;;;;;1.40;1.30;;;23.90;41.90;;;27.75;27.37;100822.25;5116831;28;20058;-19
2022/06/06 00:38:31;;;;;;;1.45;1.35;;;23.90;41.90;;;27.71;27.18;100816.31;5116763;28;20035;-19
2022/06/06 00:40:57;;;;;;;1.70;1.60;;;23.80;41.90;;;27.74;27.58;100826.78;5116235;28;20051;-20
2022/06/06 00:43:24;;;;;;;1.40;1.30;;;23.80;41.90;;;27.72;27.48;100824.25;5116416;28;20433;-19
2022/06/06 00:45:54;;;;;;;1.60;1.50;;;23.80;41.90;;;27.69;27.29;100819.16;5081197;28;20039;-19
2022/06/06 00:48:28;;;;;;;1.80;1.70;;;23.90;42.00;;;27.69;27.55;100821.00;5116988;28;20446;-19
2022/06/06 00:51:06;;;;;;;1.60;1.50;;;23.80;41.90;;;27.70;27.41;100801.22;5115568;28;20464;-19
2022/06/06 00:53:50;;;;;;;1.15;1.08;;;23.80;41.90;;;27.68;27.38;100789.75;5098575;28;20040;-20
2022/06/06 00:56:38;;;;;;;1.60;1.50;;;23.80;41.90;;;27.71;27.24;100790.28;5115227;28;20159;-20
2022/06/06 00:59:17;;;;;;;1.67;1.58;;;23.80;41.90;;;27.67;27.32;100771.94;5114561;28;20104;-19
2022/06/06 01:01:44;;;;;;;1.45;1.35;;;23.80;41.90;;;27.72;27.50;100777.72;5115388;28;20052;-19
2022/06/06 01:04:13;;;;;;;1.50;1.40;;;23.80;42.50;;;27.67;27.49;100774.63;5116296;28;20043;-19
2022/06/06 01:06:42;;;;;;;1.45;1.35;;;23.80;41.90;;;27.66;27.24;100763.00;5115996;28;20130;-19
2022/06/06 01:09:09;;;;;;;2.10;1.95;;;23.80;41.90;;;27.70;27.35;100760.91;5116263;28;20065;-19
2022/06/06 01:11:42;;;;;;;1.80;1.58;;;23.80;41.90;;;27.64;27.29;100759.63;5097804;28;20482;-19
2022/06/06 01:14:12;;;;;;;1.60;1.50;;;23.80;41.90;;;27.65;27.39;100755.97;5114935;28;20074;-19
2022/06/06 01:16:53;;;;;;;1.70;1.60;;;23.80;42.00;;;27.65;27.41;100750.59;5112764;28;20566;-20
2022/06/06 01:19:45;;;;;;;1.70;1.60;;;23.80;41.90;;;27.67;27.65;100743.22;5114649;28;20355;-19
2022/06/06 01:23:12;;;;;;;1.63;1.52;;;23.80;41.90;;;27.70;27.32;100737.59;5115603;28;20442;-19
2022/06/06 01:26:23;;;;;;;1.50;1.40;;;23.80;41.90;;;27.68;27.29;100727.94;5067802;28;20046;-19
2022/06/06 01:28:56;;;;;;;1.67;1.58;;;23.80;42.00;;;27.67;27.52;100734.34;5115465;28;20043;-19
2022/06/06 01:31:36;;;;;;;1.38;1.27;;;23.80;42.00;;;27.64;27.35;100732.78;5080399;28;20051;-19
2022/06/06 01:34:06;;;;;;;1.60;1.50;;;23.80;41.90;;;27.66;27.34;100733.47;5097609;28;20046;-19
2022/06/06 01:36:35;;;;;;;1.58;1.38;;;23.80;42.00;;;27.60;27.42;100717.94;5115465;28;20497;-20
2022/06/06 01:39:07;;;;;;;1.60;1.50;;;23.80;42.00;;;27.64;27.33;100723.88;5115412;28;20039;-20
2022/06/06 01:42:17;;;;;;;1.45;1.35;;;23.80;42.00;;;27.64;27.55;100718.50;5097780;28;20039;-19
2022/06/06 01:44:46;;;;;;;1.58;1.48;;;23.80;42.00;;;27.66;27.38;100695.88;5115317;28;20073;-19
2022/06/06 01:47:20;;;;;;;1.60;1.50;;;23.80;42.00;;;27.59;27.60;100697.44;5115108;28;20043;-19
2022/06/06 01:49:47;;;;;;;1.65;1.55;;;23.80;42.00;;;27.62;27.59;100694.47;5112385;28;20539;-20
2022/06/06 01:52:15;;;;;;;1.60;1.50;;;23.80;42.00;;;27.63;27.33;100703.38;5115278;28;20459;-19
2022/06/06 01:54:42;;;;;;;1.42;1.33;;;23.70;41.90;;;27.64;27.41;100697.00;5115386;28;20540;-19
2022/06/06 01:57:13;;;;;;;1.60;1.50;;;23.70;41.90;;;27.61;27.23;100698.13;5115104;28;20450;-20
2022/06/06 01:59:39;;;;;;;1.83;1.73;;;23.80;42.00;;;27.62;27.31;100699.00;5113155;28;20499;-20
2022/06/06 02:02:05;;;;;;;1.63;1.52;;;23.80;42.00;;;27.63;27.29;100696.19;5094945;28;20105;-19
2022/06/06 02:04:31;;;;;;;1.60;1.50;;;23.80;42.00;;;27.60;27.55;100695.59;5115055;28;20063;-19
2022/06/06 02:06:57;;;;;;;1.63;1.52;;;23.70;41.90;;;27.55;27.46;100677.25;5115028;28;20065;-19
2022/06/06 02:09:23;;;;;;;1.38;1.27;;;23.80;42.00;;;27.62;27.58;100693.63;5115104;28;20040;-20
2022/06/06 02:11:49;;;;;;;2.83;1.35;;;23.70;41.90;;;27.59;27.60;100689.38;5115039;28;20126;-19
2022/06/06 02:14:15;;;;;;;1.50;1.40;;;23.70;42.00;;;27.58;27.51;100684.97;5115286;28;20463;-19
2022/06/06 02:16:41;;;;;;;1.42;1.33;;;23.70;41.90;;;27.63;27.20;100692.63;5114886;28;20035;-20
2022/06/06 02:19:11;;;;;;;1.70;1.60;;;23.80;42.00;;;27.58;27.37;100684.16;5114775;28;20456;-19
2022/06/06 02:21:37;;;;;;;1.50;1.40;;;23.70;41.90;;;27.61;27.32;100690.06;5114950;28;20043;-19
2022/06/06 02:24:04;;;;;;;1.45;1.35;;;23.70;41.90;;;27.60;27.51;100685.72;5115105;28;20751;-19
2022/06/06 02:26:29;;;;;;;1.38;1.33;;;23.70;41.90;;;27.63;27.26;100689.94;5112841;28;20040;-19
2022/06/06 02:28:55;;;;;;;1.75;1.65;;;23.70;41.90;;;27.62;27.68;100691.78;5114652;28;20436;-19
2022/06/06 02:31:21;;;;;;;1.20;1.10;;;23.70;41.90;;;27.63;27.32;100684.56;5114567;28;20047;-19
2022/06/06 02:33:47;;;;;;;1.40;1.30;;;23.70;42.00;;;27.63;27.69;100695.31;5114687;28;20067;-20
2022/06/06 02:36:13;;;;;;;1.25;1.20;;;23.70;41.90;;;27.62;27.68;100691.78;5114479;28;20047;-19
2022/06/06 02:38:39;;;;;;;1.55;1.45;;;23.70;41.90;;;27.62;27.63;100699.00;5114619;28;20535;-19
2022/06/06 02:41:10;;;;;;;1.80;1.70;;;23.70;42.00;;;27.57;27.37;100693.22;5114134;28;20043;-19
2022/06/06 02:43:42;;;;;;;1.67;1.58;;;23.70;42.00;;;27.61;27.55;100711.56;5114636;28;20047;-20
2022/06/06 02:46:11;;;;;;;1.50;1.40;;;23.70;42.00;;;27.58;27.52;100713.69;5115055;28;20050;-19
2022/06/06 02:48:37;;;;;;;1.50;1.40;;;23.70;42.00;;;27.61;27.24;100714.25;5114999;28;20379;-19
2022/06/06 02:51:04;;;;;;;1.63;1.52;;;23.70;42.00;;;27.60;27.37;100714.38;5114177;28;20035;-19
2022/06/06 02:53:31;;;;;;;1.42;1.33;;;23.70;42.00;;;27.59;27.62;100704.66;5114288;28;20036;-19
2022/06/06 02:55:58;;;;;;;1.40;1.30;;;23.70;42.00;;;27.59;27.41;100704.66;5114233;28;20479;-19
2022/06/06 02:58:26;;;;;;;1.25;1.23;;;23.70;42.00;;;27.56;27.66;100700.41;5114216;28;20077;-19
2022/06/06 03:01:00;;;;;;;1.50;1.40;;;23.70;42.00;;;27.56;27.68;100707.63;5114036;28;20096;-19
2022/06/06 03:03:27;;;;;;;1.58;1.48;;;23.70;42.00;;;27.60;27.59;100709.00;5114188;28;20043;-19
2022/06/06 03:06:05;;;;;;;1.60;1.50;;;23.70;42.00;;;27.58;27.45;100711.84;5114085;28;20052;-19
2022/06/06 03:09:03;;;;;;;1.60;1.50;;;23.70;42.00;;;27.60;27.65;100717.06;5114742;28;20051;-19
2022/06/06 03:11:58;;;;;;;1.75;1.30;;;23.70;42.00;;;27.59;27.63;100718.09;5111118;28;20040;-19
2022/06/06 03:15:12;;;;;;;1.42;1.33;;;23.70;42.00;;;27.56;27.57;100711.16;5114046;28;20137;-19
2022/06/06 03:21:05;;;;;;;1.60;1.50;;;23.70;42.00;;;27.59;27.54;100731.50;5097351;28;20051;-19
2022/06/06 03:24:15;;;;;;;1.60;1.50;;;23.70;42.00;;;27.58;27.60;100724.44;5114206;28;20515;-20
2022/06/06 03:27:16;;;;;;;1.92;1.77;;;23.70;42.00;;;27.60;27.52;100730.50;5095443;28;20049;-20
2022/06/06 03:30:09;;;;;;;1.60;1.50;;;23.70;42.00;;;27.61;27.34;100734.91;5109804;28;20488;-20
2022/06/06 03:33:15;;;;;;;1.65;1.55;;;23.70;42.00;;;27.54;27.30;100731.94;5113618;28;20050;-19
2022/06/06 03:36:03;;;;;;;1.65;1.55;;;23.70;42.00;;;27.56;27.49;100738.00;5113993;28;20050;-19
2022/06/06 03:38:55;;;;;;;1.95;1.73;;;23.70;42.00;;;27.56;27.59;100743.38;5113451;28;20471;-19
2022/06/06 03:42:04;;;;;;;1.70;1.60;;;23.70;42.00;;;27.57;27.52;100736.19;5095517;28;20379;-19
2022/06/06 03:45:12;;;;;;;1.60;1.50;;;23.70;42.00;;;27.58;27.64;100746.75;5113563;28;20036;-20
2022/06/06 03:48:12;;;;;;;1.60;1.50;;;23.70;42.00;;;27.51;27.69;100743.78;5113438;28;20036;-19
2022/06/06 03:51:25;;;;;;;1.60;1.50;;;23.70;42.00;;;27.59;27.35;100751.16;5114012;28;20100;-20
2022/06/06 03:54:44;;;;;;;1.40;1.30;;;23.70;42.00;;;27.54;27.39;100745.34;5094084;28;20116;-20
2022/06/06 03:57:16;;;;;;;1.73;1.63;;;23.70;42.00;;;27.56;27.53;100755.97;5094204;28;20043;-19
2022/06/06 03:59:45;;;;;;;3.20;1.60;;;23.70;42.00;;;27.54;27.37;100765.00;5113457;28;20050;-20
2022/06/06 04:02:22;;;;;;;2.00;1.83;;;23.70;42.10;;;27.51;27.64;100761.75;5110804;28;20040;-19
2022/06/06 04:04:49;;;;;;;1.52;1.40;;;23.70;42.10;;;27.50;27.43;100752.00;5095097;28;20117;-19
2022/06/06 04:07:15;;;;;;;1.50;1.40;;;23.60;42.00;;;27.52;27.67;100772.34;5111433;28;20044;-19
2022/06/06 04:09:41;;;;;;;1.52;1.42;;;23.70;42.10;;;27.52;27.57;100764.28;5113072;28;20051;-19
2022/06/06 04:12:34;;;;;;;1.60;1.50;;;23.70;42.10;;;27.53;27.58;100767.81;5113002;28;20058;-18
2022/06/06 04:15:26;;;;;;;1.52;1.42;;;23.70;42.10;;;27.52;27.46;100764.28;5113166;28;20039;-19
2022/06/06 04:18:07;;;;;;;1.67;1.58;;;23.70;42.10;;;27.54;27.42;100769.53;5111563;28;20059;-19
2022/06/06 04:21:02;;;;;;;1.50;1.40;;;23.70;42.00;;;27.56;27.68;100766.69;5111440;28;20372;-19
2022/06/06 04:24:05;;;;;;;1.60;1.50;;;23.70;42.10;;;27.54;27.36;100770.38;5113517;28;20048;-19
2022/06/06 04:26:34;;;;;;;1.55;1.45;;;23.70;42.00;;;27.50;27.33;100760.06;5113040;28;20048;-19
2022/06/06 04:29:48;;;;;;;1.50;1.40;;;23.70;42.00;;;27.54;27.52;100773.06;5112822;28;20039;-20
2022/06/06 04:32:29;;;;;;;1.50;1.40;;;23.70;42.00;;;27.53;27.58;100773.19;5093026;28;20560;-19
2022/06/06 04:35:01;;;;;;;1.75;1.65;;;23.70;42.00;;;27.55;27.58;100773.91;5093904;28;20120;-19
2022/06/06 04:38:04;;;;;;;1.77;1.67;;;23.70;42.00;;;27.51;27.58;100773.31;5094743;28;20054;-19
2022/06/06 04:41:04;;;;;;;1.48;1.38;;;23.70;42.00;;;27.56;27.51;100780.13;5093120;28;20088;-20
2022/06/06 04:43:44;;;;;;;1.60;1.50;;;23.70;42.00;;;27.51;27.51;100767.97;5112834;28;20043;-19
2022/06/06 04:46:30;;;;;;;1.60;1.50;;;23.70;42.00;;;27.56;27.81;100786.34;5111516;28;20040;-19
2022/06/06 04:48:57;;;;;;;1.42;1.33;;;23.70;42.00;;;27.56;27.62;100791.72;5112862;28;20044;-19
2022/06/06 04:51:24;;;;;;;1.58;1.48;;;23.70;42.00;;;27.57;27.62;100785.38;5112975;28;20066;-20
2022/06/06 04:53:55;;;;;;;1.50;1.40;;;23.70;41.90;;;27.52;27.51;100785.78;5112542;28;20425;-19
2022/06/06 04:56:21;;;;;;;1.53;1.43;;;23.70;42.00;;;27.54;27.63;100781.09;5113249;28;20101;-20
2022/06/06 04:58:51;;;;;;;1.42;1.33;;;23.70;41.90;;;27.53;27.40;100792.84;5109519;28;20071;-20
2022/06/06 05:01:17;;;;;;;1.65;1.55;;;23.70;41.90;;;27.54;27.64;100789.16;5112567;28;20059;-19
2022/06/06 05:03:43;;;;;;;1.85;1.75;;;23.70;41.90;;;27.57;27.57;100795.28;5094241;28;20171;-19
2022/06/06 05:07:09;;;;;;;1.80;1.70;;;23.70;41.90;;;27.58;27.27;100797.78;5115765;28;20471;-19
2022/06/06 05:10:13;;;;;;;1.38;1.27;;;23.70;41.90;;;27.58;27.44;100803.16;5113179;28;20499;-19
2022/06/06 05:13:16;;;;;;;1.83;1.73;;;23.70;41.90;;;27.57;27.67;100812.22;5114672;28;20050;-20
2022/06/06 05:16:19;;;;;;;1.80;1.70;;;23.70;41.90;;;27.58;27.36;100807.69;5097640;28;20466;-19
2022/06/06 05:19:06;;;;;;;1.60;1.50;;;23.70;42.00;;;27.56;27.27;100813.19;5097895;28;20489;-19
2022/06/06 05:21:56;;;;;;;1.50;1.40;;;23.70;42.00;;;27.57;27.56;100809.53;5116400;28;20126;-19
2022/06/06 05:25:09;;;;;;;1.55;1.45;;;23.70;42.00;;;27.56;27.38;100815.88;5116105;28;20051;-19
2022/06/06 05:28:05;;;;;;;1.60;1.50;;;23.70;42.00;;;27.55;27.38;100816.91;5097505;28;20051;-20
2022/06/06 05:31:15;;;;;;;1.60;1.50;;;23.70;42.00;;;27.52;27.67;100809.09;5115742;28;20054;-19
2022/06/06 05:33:55;;;;;;;1.63;1.52;;;23.70;42.00;;;27.52;27.36;100817.16;5114406;28;20049;-20
2022/06/06 05:36:45;;;;;;;1.73;1.63;;;23.70;42.00;;;27.56;27.62;100823.09;5097910;28;20058;-19
2022/06/06 05:39:36;;;;;;;1.77;1.67;;;23.70;42.00;;;27.57;27.65;100835.56;5115450;28;20372;-20
2022/06/06 05:42:34;;;;;;;1.52;1.42;;;23.70;42.00;;;27.52;27.80;100825.22;5115726;28;20044;-19
2022/06/06 05:45:37;;;;;;;1.55;1.45;;;23.70;42.00;;;27.52;27.35;100831.44;5115452;28;20075;-19
2022/06/06 05:49:03;;;;;;;1.70;1.60;;;23.70;42.00;;;27.59;27.64;100830.88;5096706;28;20037;-19
2022/06/06 05:52:28;;;;;;;1.90;1.80;;;23.70;42.00;;;27.59;27.57;100837.09;5035108;28;20460;-19
2022/06/06 05:55:15;;;;;;;1.73;1.63;;;23.70;42.00;;;27.54;27.28;100840.19;5032758;28;20535;-20
2022/06/06 05:58:14;;;;;;;1.52;1.42;;;23.70;42.00;;;27.54;27.63;100842.88;5095449;28;20075;-19
2022/06/06 06:01:06;;;;;;;1.40;1.30;;;23.70;42.00;;;27.51;27.55;100828.88;5115209;28;20417;-20
2022/06/06 06:03:55;;;;;;;1.50;1.40;;;23.70;42.00;;;27.51;27.69;100840.47;5115138;28;20093;-19
2022/06/06 06:06:29;;;;;;;1.60;1.50;;;23.70;41.90;;;27.52;27.35;100844.84;5096715;28;20480;-20
2022/06/06 06:09:24;;;;;;;1.80;1.70;;;23.70;42.00;;;27.56;27.66;100845.44;5114974;28;20070;-19
2022/06/06 06:12:52;;;;;;;1.60;1.50;;;23.70;42.00;;;27.55;27.63;100838.38;5096721;28;20060;-19
2022/06/06 06:15:37;;;;;;;1.60;1.50;;;23.70;42.00;;;27.52;27.42;100841.34;5115266;28;20043;-20
2022/06/06 06:18:10;;;;;;;1.60;1.50;;;23.70;41.90;;;27.49;27.46;100836.25;5112421;28;20040;-19
2022/06/06 06:20:58;;;;;;;1.83;1.73;;;23.70;42.00;;;27.50;27.36;100844.16;5096083;28;20092;-19
2022/06/06 06:23:32;;;;;;;1.83;1.73;;;23.70;42.00;;;27.54;27.59;100852.78;5113891;28;20059;-19
2022/06/06 06:26:05;;;;;;;1.70;1.60;;;23.70;42.00;;;27.53;27.40;100857.31;5114889;28;20040;-19
2022/06/06 06:28:34;;;;;;;1.30;1.20;;;23.70;42.50;;;27.56;27.75;100866.06;5115150;28;20047;-17
2022/06/06 06:31:14;;;;;;;1.77;1.67;;;23.70;42.00;;;27.49;27.42;100861.25;5114695;28;20528;-19
2022/06/06 06:34:17;;;;;;;1.60;1.50;;;23.70;42.00;;;27.54;27.60;100869.72;5114740;28;20047;-19
2022/06/06 06:37:03;;;;;;;1.42;1.33;;;23.70;42.10;;;27.54;27.72;100875.09;5114659;28;20040;-20
2022/06/06 06:39:41;;;;;;;1.70;1.60;;;23.70;42.00;;;27.54;27.46;100876.94;5114968;28;20047;-19
2022/06/06 06:42:48;;;;;;;1.65;1.55;;;23.70;42.00;;;27.54;27.79;100880.47;5114408;28;20102;-20
2022/06/06 06:45:29;;;;;;;1.80;1.70;;;23.70;42.00;;;27.52;27.70;100877.09;5114543;28;20217;-19
2022/06/06 06:48:03;;;;;;;1.52;1.42;;;23.70;42.00;;;27.50;27.43;100876.38;5114615;28;20059;-20
2022/06/06 06:50:48;;;;;;;1.48;1.38;;;23.70;42.00;;;27.51;27.69;100885.28;5096487;28;20047;-19
2022/06/06 06:53:24;;;;;;;1.52;1.42;;;23.70;42.00;;;27.50;27.39;100881.75;5096203;28;20040;-19
2022/06/06 06:56:26;;;;;;;1.48;1.38;;;23.70;42.00;;;27.57;27.58;100900.00;5114435;28;20058;-19
2022/06/06 06:59:02;;;;;;;1.55;1.45;;;23.70;42.00;;;27.55;27.69;100900.16;5107546;28;20051;-19
2022/06/06 07:08:32;;;;;;;1.65;1.55;;;23.70;42.00;;;27.58;27.40;100910.59;5114831;28;20040;-19
2022/06/06 07:08:34;;;;;;;1.90;1.80;;;23.80;41.90;;;27.64;27.59;100919.94;5097704;28;20509;-19
2022/06/06 07:11:36;;;;;;;1.50;1.40;;;23.80;42.40;;;27.66;27.49;100923.34;5114145;28;20063;-20
2022/06/06 07:15:02;;;;;;;1.50;1.40;;;23.80;41.80;;;27.66;27.33;100918.81;5096552;28;20166;-19
2022/06/06 07:17:34;;;;;;;1.75;1.65;;;23.90;41.80;;;27.66;27.70;100936.78;5011151;28;20053;-19
2022/06/06 07:20:08;;;;;;;1.85;1.75;;;23.90;41.80;;;27.63;27.55;100945.97;5096298;28;20066;-20
2022/06/06 07:23:05;;;;;;;1.83;1.73;;;23.90;41.80;;;27.68;27.40;100941.03;5113971;28;20379;-20
2022/06/06 07:25:44;;;;;;;2.28;1.42;;;23.80;42.30;;;27.66;27.46;100939.47;5113861;28;20471;-19
2022/06/06 07:28:14;;;;;;;1.40;1.30;;;23.90;41.80;;;27.66;27.46;100934.94;5113713;28;20058;-20
2022/06/06 07:31:10;;;;;;;1.70;1.60;;;23.80;41.80;;;27.67;27.48;100949.22;5113783;28;20075;-19
2022/06/06 07:34:26;;;;;;;1.55;1.45;;;23.80;41.80;;;27.71;27.38;100931.84;5113852;28;20078;-19
2022/06/06 07:37:21;;;;;;;1.60;1.50;;;23.90;41.70;;;27.71;27.18;100950.63;5095486;28;20554;-20
2022/06/06 07:40:06;;;;;;;1.42;1.33;;;23.90;41.70;;;27.72;27.31;100949.66;5113741;28;20127;-19
2022/06/06 07:43:01;;;;;;;1.60;1.50;;;23.90;41.70;;;27.69;27.25;100956.16;5094444;28;20135;-19
2022/06/06 07:45:31;;;;;;;1.42;1.33;;;23.90;41.70;;;27.72;27.51;100957.72;5112393;28;20063;-19
2022/06/06 07:48:25;;;;;;;1.45;1.35;;;23.90;41.70;;;27.70;27.27;100951.66;5113210;28;20169;-19
2022/06/06 07:51:32;;;;;;;1.60;1.50;;;23.90;41.70;;;27.76;27.22;100955.59;5112540;28;20130;-19
2022/06/06 07:54:42;;;;;;;1.63;1.52;;;23.90;41.70;;;27.76;27.47;100966.34;5112160;28;20386;-20
2022/06/06 07:58:17;;;;;;;1.85;1.75;;;23.90;41.70;;;27.80;27.07;100975.81;5094452;28;20112;-19
2022/06/06 08:01:02;;;;;;;1.50;1.40;;;23.90;41.70;;;27.69;27.39;100966.06;5014052;28;20528;-20
2022/06/06 08:03:51;;;;;;;1.63;1.52;;;23.90;41.70;;;27.72;27.37;100974.69;5030599;28;20045;-19
2022/06/06 08:06:20;;;;;;;1.63;1.52;;;23.90;41.70;;;27.73;27.27;100980.91;5085495;28;20047;-19
2022/06/06 08:09:17;;;;;;;1.60;1.50;;;23.90;41.80;;;27.72;27.21;100977.38;5113172;28;20050;-19
2022/06/06 08:12:31;;;;;;;1.65;1.55;;;23.90;41.80;;;27.75;27.33;100967.34;5095472;28;20044;-19
2022/06/06 08:15:40;;;;;;;1.48;1.38;;;23.90;41.70;;;27.76;27.16;100977.94;5076518;28;20039;-20
2022/06/06 08:18:40;;;;;;;1.60;1.50;;;23.90;41.70;;;27.77;27.41;100982.34;5094624;28;20047;-19
2022/06/06 08:21:35;;;;;;;1.65;1.55;;;24.00;41.60;;;27.83;27.37;100981.81;5094693;28;20040;-19
2022/06/06 08:24:08;;;;;;;1.70;1.60;;;24.00;41.50;;;27.79;27.38;100971.47;5113072;28;20047;-20
2022/06/06 08:26:42;;;;;;;1.55;1.45;;;24.00;41.50;;;27.82;27.46;100990.84;5113077;28;20036;-19
2022/06/06 08:29:10;;;;;;;1.48;1.38;;;24.00;41.50;;;27.81;27.15;100986.44;5112813;28;20040;-19
2022/06/06 08:31:36;;;;;;;1.60;1.50;;;24.10;41.50;;;27.84;27.25;100991.53;5112929;28;20468;-20
2022/06/06 08:34:03;;;;;;;1.55;1.45;;;24.00;41.50;;;27.87;27.42;101001.19;5112899;28;20044;-19
2022/06/06 08:37:00;;;;;;;1.60;1.50;;;24.10;41.50;;;27.86;27.34;100996.78;5113135;28;20507;-19
2022/06/06 08:39:58;;;;;;;1.60;1.50;;;24.00;41.50;;;27.86;27.14;100992.25;5112957;28;20059;-20
2022/06/06 08:43:00;;;;;;;1.52;1.42;;;24.00;41.50;;;27.83;27.34;100992.56;5098037;28;20505;-20
2022/06/06 08:45:43;;;;;;;1.70;1.60;;;24.00;41.60;;;27.84;27.09;100990.72;5081153;28;20064;-19
2022/06/06 08:48:34;;;;;;;1.55;1.45;;;24.00;41.60;;;27.84;27.20;100996.91;5116648;28;20043;-20
2022/06/06 08:51:24;;;;;;;1.60;1.50;;;24.00;41.60;;;27.84;27.06;101006.81;5116454;28;20490;-20
2022/06/06 08:54:29;;;;;;;1.40;1.30;;;24.00;41.60;;;27.82;27.02;100995.38;5116317;28;20044;-20
2022/06/06 08:57:31;;;;;;;1.60;1.50;;;24.00;41.50;;;27.83;27.29;100992.56;5116176;28;20135;-20
2022/06/06 09:00:30;;;;;;;1.75;1.65;;;24.00;41.50;;;27.84;27.02;101010.34;5097522;28;20043;-19
2022/06/06 09:03:31;;;;;;;1.65;1.55;;;24.10;41.50;;;27.87;27.35;101002.03;5097777;28;20043;-19
2022/06/06 09:06:51;;;;;;;1.67;1.58;;;24.00;41.50;;;27.91;27.09;101011.50;5116115;28;20047;-20
2022/06/06 09:09:55;;;;;;;2.08;1.50;;;24.10;41.50;;;27.90;27.37;101017.03;5038440;28;20061;-20
2022/06/06 09:13:11;;;;;;;1.60;1.50;;;24.00;41.50;;;27.89;27.09;101013.47;5115991;28;20467;-20
2022/06/06 09:16:24;;;;;;;1.50;1.40;;;24.00;41.50;;;27.89;27.13;101004.56;5097809;28;20048;-19
2022/06/06 09:19:24;;;;;;;1.60;1.50;;;24.00;41.60;;;27.86;27.32;101004.84;5115670;28;20044;-20
2022/06/06 09:21:58;;;;;;;1.65;1.55;;;24.10;41.60;;;27.82;27.14;100992.69;5115874;28;20494;-20
2022/06/06 09:25:12;;;;;;;1.60;1.50;;;24.00;42.00;;;27.90;27.12;101008.97;5114587;28;20442;-20
2022/06/06 09:28:04;;;;;;;1.67;1.58;;;24.10;41.50;;;27.90;27.24;101007.13;5116021;28;20110;-20
2022/06/06 09:30:51;;;;;;;1.70;1.60;;;24.10;41.40;;;27.93;27.07;101013.25;5115714;28;20097;-21
2022/06/06 09:34:14;;;;;;;1.75;1.65;;;24.20;41.40;;;27.97;26.95;100999.41;5116250;28;20126;-20
2022/06/06 09:36:57;;;;;;;1.63;1.52;;;24.10;41.30;;;27.94;27.14;101007.72;5114406;28;20039;-20
2022/06/06 09:39:57;;;;;;;1.75;1.65;;;24.10;41.30;;;27.90;27.26;101004.44;5115385;28;20036;-20
2022/06/06 09:42:40;;;;;;;1.48;1.38;;;24.10;41.40;;;27.94;27.00;101004.19;5109672;28;20040;-20
2022/06/06 09:45:31;;;;;;;1.63;1.52;;;24.10;41.50;;;27.93;26.97;101005.19;5115726;28;20433;-20
2022/06/06 09:48:42;;;;;;;1.70;1.60;;;24.10;41.50;;;27.95;27.23;101001.38;5097045;28;20044;-20
2022/06/06 09:51:36;;;;;;;1.73;1.63;;;24.00;41.50;;;27.94;26.99;101007.72;5114445;28;20467;-20
2022/06/06 10:01:21;;;;;;;2.00;1.90;;;24.10;41.50;;;27.93;26.99;101013.25;5115005;28;20135;-20
2022/06/06 10:04:15;;;;;;;1.45;1.35;;;24.10;41.40;;;27.98;27.02;101019.88;5114116;28;20467;-20
2022/06/06 10:07:28;;;;;;;1.40;1.30;;;24.20;41.30;;;27.99;27.10;101008.16;5096669;28;20071;-20
2022/06/06 10:10:36;;;;;;;1.73;1.63;;;24.20;41.30;;;28.00;27.23;101009.00;5114051;28;20051;-20
2022/06/06 10:13:59;;;;;;;1.55;1.45;;;24.10;41.30;;;28.00;27.15;101012.56;5115123;28;20488;-21
2022/06/06 10:17:05;;;;;;;1.55;1.45;;;24.10;41.40;;;27.98;27.26;101011.00;5115262;28;20051;-20
2022/06/06 10:20:08;;;;;;;1.73;1.63;;;24.10;41.40;;;27.95;27.05;101013.94;5114576;28;20043;-21
2022/06/06 10:22:50;;;;;;;1.90;1.80;;;24.10;41.40;;;27.93;27.14;101005.19;5113652;28;20044;-20
2022/06/06 10:25:39;;;;;;;1.70;1.60;;;24.10;41.40;;;27.97;26.99;101009.31;5115024;28;20039;-21
2022/06/06 10:28:48;;;;;;;1.80;1.70;;;24.20;41.30;;;27.99;27.21;101004.63;5114353;28;20079;-21
2022/06/06 10:31:49;;;;;;;1.70;1.60;;;24.20;41.30;;;27.95;26.86;101011.25;5115099;28;20035;-20
2022/06/06 10:35:14;;;;;;;1.83;1.73;;;24.20;41.30;;;28.08;27.09;101012.72;5114621;28;20048;-20
2022/06/06 10:38:20;;;;;;;1.75;1.65;;;24.20;41.20;;;28.05;27.08;101009.44;5066729;28;20035;-21
2022/06/06 10:41:04;;;;;;;1.60;1.50;;;24.20;41.20;;;28.05;26.82;101001.38;5095033;28;20048;-21
2022/06/06 10:44:05;;;;;;;1.50;1.40;;;24.20;41.30;;;28.04;27.01;101005.91;5114830;28;20093;-20
2022/06/06 10:46:46;;;;;;;1.80;1.70;;;24.20;41.30;;;28.07;27.10;100999.41;5096785;28;20650;-20
2022/06/06 10:49:34;;;;;;;1.50;1.40;;;24.20;41.20;;;28.08;26.95;101001.09;5114965;28;20043;-20
2022/06/06 10:52:49;;;;;;;1.50;1.40;;;24.20;41.20;;;28.11;27.15;101003.53;5096151;28;20066;-20
2022/06/06 10:56:11;;;;;;;1.60;1.50;;;24.20;41.20;;;28.11;26.75;100992.75;5096813;28;20075;-20
2022/06/06 10:59:07;;;;;;;1.60;1.50;;;24.20;41.10;;;28.09;26.85;100990.22;5079496;28;20049;-21
2022/06/06 11:02:22;;;;;;;1.58;1.48;;;24.20;41.20;;;28.04;26.88;100979.03;5095981;28;20104;-21
2022/06/06 11:05:29;;;;;;;1.67;1.58;;;24.20;41.20;;;28.11;27.10;100990.06;5095376;28;20043;-20
2022/06/06 11:08:21;;;;;;;1.48;1.38;;;24.20;41.20;;;28.08;27.13;100990.34;5114154;28;20043;-20
2022/06/06 11:11:19;;;;;;;1.80;1.70;;;24.20;41.20;;;28.06;27.02;100986.97;5112687;28;20467;-20
2022/06/06 11:14:10;;;;;;;1.75;1.65;;;24.20;41.20;;;28.03;27.24;100985.41;5114379;28;20047;-21
2022/06/06 11:17:39;;;;;;;1.75;1.65;;;24.20;41.20;;;28.09;26.81;101000.97;5095552;28;20065;-21
2022/06/06 11:20:39;;;;;;;2.08;1.88;;;24.20;41.20;;;28.08;26.80;101001.09;5095632;28;20044;-20
2022/06/06 11:23:19;;;;;;;1.45;1.35;;;24.20;41.10;;;28.05;27.16;100996.00;5111691;28;20043;-21
2022/06/06 11:25:56;;;;;;;1.45;1.35;;;24.30;41.20;;;28.06;27.13;100995.03;5114539;28;20090;-21
2022/06/06 11:28:35;;;;;;;1.83;1.73;;;24.30;41.10;;;28.10;27.00;100996.47;5112268;28;20064;-20
2022/06/06 11:31:47;;;;;;;1.65;1.55;;;24.30;41.20;;;28.11;26.87;101000.81;5113802;28;20044;-20
2022/06/06 11:35:04;;;;;;;1.42;1.33;;;24.30;41.20;;;28.12;27.12;100993.59;5094057;28;20040;-21
2022/06/06 11:37:56;;;;;;;2.08;1.50;;;24.30;41.10;;;28.13;27.08;100995.31;5113436;28;20043;-20
2022/06/06 11:41:11;;;;;;;1.60;1.50;;;24.40;41.00;;;28.18;26.96;100991.22;5095903;28;20043;-20
2022/06/06 11:44:32;;;;;;;1.85;1.60;;;24.40;41.00;;;28.20;26.97;100993.75;5078373;28;20391;-20
2022/06/06 11:47:22;;;;;;;1.58;1.48;;;24.40;41.00;;;28.18;26.72;100993.91;5113706;28;20058;-21
2022/06/06 11:50:18;;;;;;;1.70;1.60;;;24.40;41.00;;;28.17;26.92;100991.38;5110410;28;20395;-20
2022/06/06 11:52:59;;;;;;;1.60;1.50;;;24.30;41.00;;;28.11;26.86;100979.31;5095532;28;20047;-20